Time;durP1;ratioP1;P1;durP2;ratioP2;P2;SDS_P1;SDS_P2;PMS_P1;PMS_P2;Temp;Humidity;BMP_temperature;BMP_pressure;BME280_temperature;BME280_humidity;BME280_pressure;Samples;Min_cycle;Max_cycle;Signal;HPM_P1;HPM_P2
2022/08/08 00:01:31;;;;;;;;;1.00;1.00;;;;;24.11;58.97;99043.03;4946407;28;104034;-56
2022/08/08 00:04:25;;;;;;;;;1.00;1.00;;;;;24.12;58.94;99037.22;4930930;28;102327;-57
2022/08/08 00:07:04;;;;;;;;;1.50;1.50;;;;;24.13;59.52;99032.53;4954073;28;102432;-56
2022/08/08 00:10:02;;;;;;;;;2.00;2.00;;;;;24.10;59.17;99033.91;4941056;28;104134;-56
2022/08/08 00:12:33;;;;;;;;;1.00;1.00;;;;;24.11;59.72;99035.56;4947284;28;102269;-56
2022/08/08 00:15:15;;;;;;;;;1.00;1.00;;;;;24.10;58.55;99033.06;4944742;28;102615;-56
2022/08/08 00:17:55;;;;;;;;;1.00;1.00;;;;;24.09;58.74;99031.44;4911837;28;103741;-56
2022/08/08 00:20:32;;;;;;;;;0.00;0.00;;;;;24.07;59.49;99033.63;4949251;27;104245;-56
2022/08/08 00:23:07;;;;;;;;;0.33;0.33;;;;;24.08;58.85;99032.53;4949960;28;102344;-57
2022/08/08 00:25:42;;;;;;;;;0.33;0.33;;;;;24.05;58.37;99022.03;4934102;28;102252;-56
2022/08/08 00:28:18;;;;;;;;;1.67;1.00;;;;;24.06;58.54;99034.75;4940456;28;103965;-56
2022/08/08 00:31:29;;;;;;;;;1.00;1.00;;;;;24.05;58.36;99024.78;4942088;28;109174;-56
2022/08/08 00:38:02;;;;;;;;;1.00;1.00;;;;;24.04;58.93;99028.69;4944286;28;102179;-56
2022/08/08 00:40:39;;;;;;;;;1.00;1.00;;;;;24.05;58.83;99030.31;4948402;28;102272;-56
2022/08/08 00:43:47;;;;;;;;;1.33;0.67;;;;;24.02;59.22;99027.03;4946363;28;109995;-56
2022/08/08 00:46:51;;;;;;;;;0.67;0.00;;;;;24.03;58.64;99033.38;4951596;28;102376;-56
2022/08/08 00:49:29;;;;;;;;;0.67;0.67;;;;;24.02;58.69;99027.03;4953753;28;102282;-56
2022/08/08 00:52:04;;;;;;;;;1.00;0.33;;;;;24.02;57.98;99021.50;4946069;28;106076;-56
2022/08/08 00:54:43;;;;;;;;;1.00;1.00;;;;;24.02;58.48;99020.66;4944995;28;104288;-56
2022/08/08 00:57:26;;;;;;;;;1.00;1.00;;;;;24.02;58.33;99020.66;4942056;28;102328;-56
2022/08/08 01:00:04;;;;;;;;;1.00;1.00;;;;;24.01;58.17;99019.00;4950437;28;102488;-57
2022/08/08 01:03:10;;;;;;;;;1.00;1.00;;;;;23.99;58.62;99022.06;4946993;28;102286;-56
2022/08/08 01:06:21;;;;;;;;;1.00;1.00;;;;;23.99;58.76;99022.06;4952388;28;109834;-56
2022/08/08 01:09:05;;;;;;;;;0.33;0.33;;;;;24.00;57.99;99029.22;4947815;28;103746;-56
2022/08/08 01:12:01;;;;;;;;;1.00;1.00;;;;;23.98;58.74;99020.41;4951307;27;102471;-56
2022/08/08 01:14:38;;;;;;;;;2.00;1.00;;;;;23.99;58.35;99024.00;4957713;28;102629;-56
2022/08/08 01:17:54;;;;;;;;;0.00;0.00;;;;;23.99;58.93;99030.34;4947000;28;108242;-57
2022/08/08 01:20:49;;;;;;;;;1.00;1.00;;;;;24.00;58.67;99028.41;4941627;27;102218;-57
2022/08/08 01:23:41;;;;;;;;;0.67;0.67;;;;;23.98;58.50;99023.16;4959675;28;102475;-56
2022/08/08 01:26:49;;;;;;;;;1.00;1.00;;;;;23.98;58.50;99025.09;4949377;28;103166;-56
2022/08/08 01:29:45;;;;;;;;;1.00;1.00;;;;;23.97;58.33;99027.03;4969298;28;109084;-56
2022/08/08 01:33:04;;;;;;;;;0.00;0.00;;;;;23.97;58.79;99023.44;4941705;28;102788;-57
2022/08/08 01:36:29;;;;;;;;;0.67;0.67;;;;;23.96;58.35;99019.84;4952259;27;102393;-57
2022/08/08 01:39:14;;;;;;;;;1.00;1.00;;;;;23.96;58.44;99016.22;4955194;28;102325;-56
2022/08/08 01:42:35;;;;;;;;;0.00;0.00;;;;;23.94;58.38;99024.81;4942093;28;110177;-57
2022/08/08 01:45:22;;;;;;;;;2.33;2.00;;;;;23.94;58.40;99022.06;4897577;28;102299;-56
2022/08/08 01:48:02;;;;;;;;;1.00;1.00;;;;;23.93;58.28;99022.31;4946347;28;102257;-56
2022/08/08 01:51:11;;;;;;;;;0.00;0.00;;;;;23.94;58.73;99024.00;4948436;28;102694;-58
2022/08/08 01:54:12;;;;;;;;;0.33;0.33;;;;;23.95;58.51;99031.19;4950197;28;109605;-56
2022/08/08 01:57:11;;;;;;;;;1.00;1.00;;;;;23.93;59.11;99027.84;4950737;28;104427;-57
2022/08/08 02:00:10;;;;;;;;;0.33;0.00;;;;;23.93;58.82;99023.16;4955066;28;102170;-57
2022/08/08 02:03:13;;;;;;;;;0.67;0.67;;;;;23.92;58.30;99021.50;4929319;28;102460;-56
2022/08/08 02:06:22;;;;;;;;;0.00;0.00;;;;;23.94;58.74;99035.03;4944907;28;110024;-56
2022/08/08 02:09:10;;;;;;;;;0.00;0.00;;;;;23.92;58.27;99038.06;4940159;28;102254;-56
2022/08/08 02:11:45;;;;;;;;;1.00;1.00;;;;;23.92;58.59;99032.53;4948676;28;102281;-57
2022/08/08 02:14:39;;;;;;;;;0.67;0.67;;;;;23.92;58.30;99032.53;4959474;27;102568;-56
2022/08/08 02:17:39;;;;;;;;;1.33;0.33;;;;;23.91;58.46;99041.94;4955626;28;110195;-57
2022/08/08 02:20:27;;;;;;;;;0.67;0.67;;;;;23.90;58.71;99037.53;4934067;28;102381;-56
2022/08/08 02:23:27;;;;;;;;;1.00;1.00;;;;;23.89;58.44;99029.50;4950495;28;102256;-56
2022/08/08 02:26:09;;;;;;;;;1.00;1.00;;;;;23.88;58.68;99031.44;4955404;28;102415;-56
2022/08/08 02:28:46;;;;;;;;;1.00;1.00;;;;;23.87;58.60;99029.78;4948234;28;103798;-56
2022/08/08 02:31:26;;;;;;;;;1.00;1.00;;;;;23.88;58.78;99036.97;4954041;28;102257;-57
2022/08/08 02:34:20;;;;;;;;;0.00;0.00;;;;;23.87;58.85;99040.81;4943469;28;102481;-56
2022/08/08 02:37:56;;;;;;;;;1.00;1.00;;;;;23.88;58.74;99045.25;4939544;28;102953;-56
2022/08/08 02:41:09;;;;;;;;;0.00;0.00;;;;;23.87;58.46;99035.31;4891552;28;109021;-56
2022/08/08 02:44:32;;;;;;;;;1.00;1.00;;;;;23.86;58.38;99041.97;4937705;28;102464;-56
2022/08/08 02:47:43;;;;;;;;;1.00;0.00;;;;;23.86;58.35;99036.44;4945809;28;102158;-60
2022/08/08 02:50:38;;;;;;;;;0.00;0.00;;;;;23.84;58.50;99038.63;4950863;27;102289;-57
2022/08/08 02:53:34;;;;;;;;;0.00;0.00;;;;;23.84;58.39;99038.63;4944813;27;104115;-56
2022/08/08 02:56:23;;;;;;;;;1.00;1.00;;;;;23.83;58.68;99028.69;4955050;28;102281;-57
2022/08/08 02:58:53;;;;;;;;;0.33;0.33;;;;;23.83;58.79;99038.91;4940430;27;103213;-56
2022/08/08 03:01:32;;;;;;;;;0.00;0.00;;;;;23.82;58.32;99035.31;4943428;28;103045;-57
2022/08/08 03:04:50;;;;;;;;;1.00;1.00;;;;;23.83;58.60;99038.91;4950616;28;108622;-56
2022/08/08 03:07:51;;;;;;;;;1.00;1.00;;;;;23.83;58.46;99034.19;4958442;28;102412;-57
2022/08/08 03:10:33;;;;;;;;;1.00;0.00;;;;;23.83;59.04;99044.41;4947685;27;102132;-56
2022/08/08 03:13:43;;;;;;;;;0.00;0.00;;;;;23.81;58.73;99041.13;4940037;28;102371;-56
2022/08/08 03:16:56;;;;;;;;;0.00;0.00;;;;;23.82;58.66;99045.56;4941051;28;109853;-57
2022/08/08 03:19:29;;;;;;;;;1.00;1.00;;;;;23.81;58.56;99047.47;4966134;28;102804;-57
2022/08/08 03:21:58;;;;;;;;;0.33;0.00;;;;;23.81;58.53;99036.44;4949873;27;102470;-56
2022/08/08 03:24:25;;;;;;;;;1.00;1.00;;;;;23.81;58.26;99039.19;4946776;27;103670;-56
2022/08/08 03:27:25;;;;;;;;;0.00;0.00;;;;;23.80;58.46;99037.53;4946738;28;105375;-57
2022/08/08 03:29:56;;;;;;;;;0.00;0.00;;;;;23.79;58.25;99044.16;4944770;28;102448;-56
2022/08/08 03:35:23;;;;;;;;;0.33;0.33;;;;;23.78;58.46;99048.00;4945090;27;103698;-56
2022/08/08 03:37:50;;;;;;;;;0.67;0.67;;;;;23.78;58.55;99045.25;4952859;28;104009;-57
2022/08/08 03:40:38;;;;;;;;;0.00;0.00;;;;;23.78;58.38;99048.00;4941954;28;102798;-56
2022/08/08 03:43:11;;;;;;;;;0.67;0.67;;;;;23.78;58.37;99049.94;4928264;27;104052;-56
2022/08/08 03:45:45;;;;;;;;;1.00;1.00;;;;;23.77;58.52;99046.38;4951039;27;102858;-56
2022/08/08 03:48:32;;;;;;;;;0.00;0.00;;;;;23.78;58.39;99048.00;4946250;28;109906;-56
2022/08/08 03:51:19;;;;;;;;;0.00;0.00;;;;;23.76;58.58;99053.00;4947599;28;104909;-58
2022/08/08 03:54:10;;;;;;;;;0.00;0.00;;;;;23.77;58.79;99057.44;4947654;27;102589;-57
2022/08/08 03:56:59;;;;;;;;;0.67;0.67;;;;;23.77;58.42;99065.72;4955218;28;105392;-56
2022/08/08 03:59:46;;;;;;;;;0.67;0.67;;;;;23.77;58.47;99059.34;4958697;28;110065;-56
2022/08/08 04:02:34;;;;;;;;;0.00;0.00;;;;;23.77;58.47;99060.19;4936097;28;102292;-56
2022/08/08 04:05:18;;;;;;;;;0.00;0.00;;;;;23.75;58.48;99067.91;4939561;28;102514;-56
2022/08/08 04:07:54;;;;;;;;;0.33;0.33;;;;;23.76;58.33;99057.69;4952565;27;102545;-56
2022/08/08 04:10:21;;;;;;;;;0.00;0.00;;;;;23.73;58.47;99061.81;4947305;28;104093;-56
2022/08/08 04:12:48;;;;;;;;;1.00;1.00;;;;;23.74;58.48;99063.47;4947881;27;102369;-56
2022/08/08 04:15:15;;;;;;;;;0.33;0.33;;;;;23.73;58.55;99072.84;4949175;28;102591;-56
2022/08/08 04:17:48;;;;;;;;;1.00;0.33;;;;;23.73;58.43;99067.34;4961425;28;102805;-56
2022/08/08 04:20:25;;;;;;;;;0.67;0.67;;;;;23.72;58.26;99065.69;4943025;28;109008;-56
2022/08/08 04:22:55;;;;;;;;;0.00;0.00;;;;;23.72;58.50;99060.19;4951203;28;102393;-56
2022/08/08 04:25:24;;;;;;;;;0.00;0.00;;;;;23.73;58.15;99056.28;4949179;28;102566;-56
2022/08/08 04:27:58;;;;;;;;;0.00;0.00;;;;;23.73;58.27;99075.63;4949308;28;102328;-57
2022/08/08 04:30:46;;;;;;;;;0.00;0.00;;;;;23.74;58.46;99073.69;4947764;28;110132;-56
2022/08/08 04:33:14;;;;;;;;;1.00;1.00;;;;;23.72;58.34;99065.69;4954190;28;102373;-57
2022/08/08 04:35:42;;;;;;;;;1.00;0.00;;;;;23.74;57.70;99069.00;4952579;27;103198;-56
2022/08/08 04:38:17;;;;;;;;;0.00;0.00;;;;;23.74;58.64;99068.16;4954919;28;102204;-56
2022/08/08 04:40:48;;;;;;;;;0.00;0.00;;;;;23.74;58.23;99069.00;4945401;28;109201;-56
2022/08/08 04:43:21;;;;;;;;;0.00;0.00;;;;;23.74;58.19;99080.03;4944335;27;102527;-60
2022/08/08 04:46:08;;;;;;;;;0.00;0.00;;;;;23.72;58.11;99076.75;4951581;28;102639;-56
2022/08/08 04:48:35;;;;;;;;;1.00;1.00;;;;;23.72;58.40;99076.75;4949726;28;103313;-56
2022/08/08 04:51:02;;;;;;;;;1.00;1.00;;;;;23.71;58.34;99088.88;4953526;27;104056;-56
2022/08/08 04:53:30;;;;;;;;;1.00;1.00;;;;;23.72;58.15;99086.97;4954719;28;103130;-57
2022/08/08 04:56:17;;;;;;;;;1.00;0.00;;;;;23.74;58.09;99093.03;4950101;27;102599;-56
2022/08/08 04:58:44;;;;;;;;;0.33;0.33;;;;;23.73;58.43;99088.63;4953638;28;102691;-56
2022/08/08 05:01:13;;;;;;;;;0.00;0.00;;;;;23.72;58.19;99082.28;4952571;28;104174;-56
2022/08/08 05:03:41;;;;;;;;;0.00;0.00;;;;;23.72;58.34;99086.97;4947708;28;102489;-56
2022/08/08 05:06:28;;;;;;;;;1.00;0.00;;;;;23.71;58.12;99085.28;4947253;28;102473;-56
2022/08/08 05:08:55;;;;;;;;;0.33;0.33;;;;;23.72;57.98;99090.56;4948107;28;103249;-56
2022/08/08 05:11:29;;;;;;;;;0.00;0.00;;;;;23.73;58.21;99083.91;4948863;27;104054;-56
2022/08/08 05:14:07;;;;;;;;;1.00;1.00;;;;;23.73;58.38;99083.91;4954699;27;102430;-56
2022/08/08 05:16:37;;;;;;;;;0.33;0.00;;;;;23.73;58.22;99078.38;4945534;28;102274;-56
2022/08/08 05:19:24;;;;;;;;;1.00;1.00;;;;;23.73;58.18;99097.72;4934397;28;103502;-56
2022/08/08 05:22:11;;;;;;;;;0.67;0.67;;;;;23.72;58.36;99096.06;4945341;28;105198;-56
2022/08/08 05:24:43;;;;;;;;;0.00;0.00;;;;;23.73;58.12;99089.44;4949812;28;103274;-57
2022/08/08 05:27:15;;;;;;;;;1.00;0.00;;;;;23.73;57.98;99099.69;4947376;28;105296;-57
2022/08/08 05:29:42;;;;;;;;;0.00;0.00;;;;;23.72;58.14;99101.59;4947450;28;102231;-56
2022/08/08 05:32:10;;;;;;;;;1.00;0.33;;;;;23.72;58.00;99096.06;4957541;28;104153;-57
2022/08/08 05:34:47;;;;;;;;;0.00;0.00;;;;;23.72;58.14;99098.00;4954370;28;102299;-56
2022/08/08 05:37:25;;;;;;;;;0.00;0.00;;;;;23.72;58.86;99090.56;4945003;28;105103;-56
2022/08/08 05:40:12;;;;;;;;;1.00;1.00;;;;;23.72;58.43;99093.31;4945099;28;102410;-57
2022/08/08 05:42:43;;;;;;;;;0.00;0.00;;;;;23.74;58.99;99091.09;4948927;28;104066;-57
2022/08/08 05:45:12;;;;;;;;;0.00;0.00;;;;;23.72;58.04;99095.25;4942057;28;102267;-56
2022/08/08 05:47:59;;;;;;;;;0.00;0.00;;;;;23.72;58.07;99093.31;4946183;28;102312;-56
2022/08/08 05:50:35;;;;;;;;;0.00;0.00;;;;;23.73;58.64;99092.19;4950458;28;102255;-56
2022/08/08 05:53:04;;;;;;;;;0.00;0.00;;;;;23.73;57.95;99085.88;4945136;28;103600;-56
2022/08/08 05:55:52;;;;;;;;;0.00;0.00;;;;;23.73;58.31;99092.19;4945947;27;102765;-56
2022/08/08 05:58:43;;;;;;;;;0.00;0.00;;;;;23.74;57.72;99095.78;4945998;28;102409;-56
2022/08/08 06:01:23;;;;;;;;;0.00;0.00;;;;;23.73;58.66;99099.69;4952480;28;102146;-57
2022/08/08 06:04:10;;;;;;;;;0.00;0.00;;;;;23.73;58.20;99100.47;4955645;28;105485;-56
2022/08/08 06:06:48;;;;;;;;;0.00;0.00;;;;;23.73;58.52;99106.00;4956400;28;102280;-56
2022/08/08 06:09:16;;;;;;;;;0.00;0.00;;;;;23.73;58.16;99100.47;4957436;28;102080;-56
2022/08/08 06:12:03;;;;;;;;;0.00;0.00;;;;;23.73;58.39;99111.53;4955855;28;102493;-56
2022/08/08 06:14:30;;;;;;;;;0.67;0.33;;;;;23.75;58.03;99114.84;4962676;28;104065;-56
2022/08/08 06:17:00;;;;;;;;;1.00;1.00;;;;;23.77;58.30;99114.59;4957444;28;110572;-56
2022/08/08 06:19:28;;;;;;;;;0.67;0.00;;;;;23.76;58.82;99105.47;4965828;28;102220;-56
2022/08/08 06:22:00;;;;;;;;;0.00;0.00;;;;;23.77;58.85;99107.13;4960028;28;103149;-57
2022/08/08 06:24:49;;;;;;;;;0.67;0.67;;;;;23.77;58.38;99107.13;4945939;28;109934;-56
2022/08/08 06:27:24;;;;;;;;;1.00;0.00;;;;;23.77;58.79;99111.81;4951281;28;102339;-56
2022/08/08 06:30:09;;;;;;;;;0.00;0.00;;;;;23.77;58.67;99112.66;4949366;27;102492;-56
2022/08/08 06:32:56;;;;;;;;;1.00;1.00;;;;;23.77;59.06;99107.13;4953347;28;102511;-56
2022/08/08 06:35:23;;;;;;;;;0.00;0.00;;;;;23.77;59.28;99107.13;4952543;28;108972;-57
2022/08/08 06:38:10;;;;;;;;;0.67;0.00;;;;;23.78;59.03;99110.69;4960262;28;102392;-56
2022/08/08 06:40:40;;;;;;;;;1.00;1.00;;;;;23.78;57.96;99106.00;4957849;28;102277;-56
2022/08/08 06:43:20;;;;;;;;;0.00;0.00;;;;;23.79;58.82;99115.97;4951174;28;102690;-56
2022/08/08 06:46:00;;;;;;;;;0.00;0.00;;;;;23.80;58.50;99111.28;4952282;28;109585;-56
2022/08/08 06:48:28;;;;;;;;;0.00;0.00;;;;;23.79;58.15;99115.97;4964196;28;102226;-56
2022/08/08 06:50:56;;;;;;;;;0.67;0.67;;;;;23.80;58.37;99117.63;4955272;28;104700;-57
2022/08/08 06:53:24;;;;;;;;;0.33;0.00;;;;;23.81;58.74;99116.53;4967462;28;102429;-56
2022/08/08 06:56:06;;;;;;;;;0.00;0.00;;;;;23.81;58.74;99102.72;4945455;28;108736;-56
2022/08/08 06:58:34;;;;;;;;;1.00;1.00;;;;;23.83;58.62;99110.72;4952286;28;102365;-56
2022/08/08 07:01:03;;;;;;;;;0.67;0.67;;;;;23.83;58.60;99110.72;4942082;28;102841;-56
2022/08/08 07:03:55;;;;;;;;;0.67;0.67;;;;;23.83;58.53;99106.00;4947637;28;103271;-57
2022/08/08 07:06:45;;;;;;;;;0.33;0.33;;;;;23.85;58.35;99116.81;4948804;28;110003;-56
2022/08/08 07:09:18;;;;;;;;;0.00;0.00;;;;;23.83;58.54;99117.06;4955969;28;102332;-56
2022/08/08 07:11:50;;;;;;;;;0.00;0.00;;;;;23.84;58.38;99113.19;4947100;28;103439;-56
2022/08/08 07:14:26;;;;;;;;;0.00;0.00;;;;;23.84;58.65;99117.91;4952607;28;102247;-56
2022/08/08 07:17:00;;;;;;;;;0.33;0.33;;;;;23.84;58.36;99115.13;4949177;28;108873;-57
2022/08/08 07:19:41;;;;;;;;;0.00;0.00;;;;;23.84;58.41;99118.72;4952737;28;102185;-56
2022/08/08 07:22:10;;;;;;;;;0.00;0.00;;;;;23.83;58.15;99111.53;4951852;28;102439;-57
2022/08/08 07:24:51;;;;;;;;;0.00;0.00;;;;;23.83;58.06;99111.53;4953697;28;102357;-56
2022/08/08 07:27:21;;;;;;;;;1.00;1.00;;;;;23.85;58.15;99112.09;4959213;28;109113;-56
2022/08/08 07:30:09;;;;;;;;;0.00;0.00;;;;;23.85;57.87;99112.09;4945551;28;102563;-56
2022/08/08 07:32:44;;;;;;;;;0.00;0.00;;;;;23.85;57.94;99109.34;4953608;28;102169;-56
2022/08/08 07:35:14;;;;;;;;;0.00;0.00;;;;;23.86;57.86;99116.53;4965734;28;102263;-56
2022/08/08 07:37:43;;;;;;;;;0.00;0.00;;;;;23.86;57.88;99116.53;4962199;28;104073;-56
2022/08/08 07:40:31;;;;;;;;;1.00;0.67;;;;;23.85;57.92;99114.03;4946587;28;102437;-56
2022/08/08 07:43:01;;;;;;;;;0.33;0.33;;;;;23.85;57.98;99114.88;4950058;28;102479;-56
2022/08/08 07:45:29;;;;;;;;;0.00;0.00;;;;;23.86;58.03;99126.75;4960296;28;102252;-56
2022/08/08 07:48:17;;;;;;;;;0.00;0.00;;;;;23.86;57.85;99124.81;4951792;28;110078;-56
2022/08/08 07:50:45;;;;;;;;;0.00;0.00;;;;;23.86;58.06;99124.00;4961552;28;102636;-57
2022/08/08 07:53:20;;;;;;;;;0.00;0.00;;;;;23.87;58.08;99131.16;4954179;28;102120;-57
2022/08/08 07:56:08;;;;;;;;;0.00;0.00;;;;;23.86;57.71;99133.09;4951297;28;102171;-57
2022/08/08 07:58:43;;;;;;;;;0.00;0.00;;;;;23.86;58.05;99121.22;4957429;28;104254;-57
2022/08/08 08:01:19;;;;;;;;;0.00;0.00;;;;;23.87;57.58;99128.38;4957221;28;102865;-57
2022/08/08 08:04:04;;;;;;;;;0.00;0.00;;;;;23.86;57.68;99130.34;4941371;28;102593;-57
2022/08/08 08:06:39;;;;;;;;;1.00;0.00;;;;;23.87;57.45;99137.50;4940055;28;102482;-57
2022/08/08 08:09:18;;;;;;;;;0.00;0.00;;;;;23.87;57.58;99140.28;4947213;28;104108;-56
2022/08/08 08:11:48;;;;;;;;;0.67;0.00;;;;;23.87;57.71;99140.28;4973760;28;102255;-57
2022/08/08 08:14:35;;;;;;;;;0.00;0.00;;;;;23.89;57.45;99137.25;4955187;28;102552;-56
2022/08/08 08:17:06;;;;;;;;;0.00;0.00;;;;;23.89;57.76;99131.72;4956421;28;102143;-56
2022/08/08 08:19:34;;;;;;;;;0.00;0.00;;;;;23.89;57.51;99138.06;4955073;28;104020;-56
2022/08/08 08:22:11;;;;;;;;;0.00;0.00;;;;;23.89;57.58;99137.25;4950293;27;102427;-57
2022/08/08 08:24:43;;;;;;;;;0.00;0.00;;;;;23.90;57.41;99144.44;4957606;28;102250;-56
2022/08/08 08:27:12;;;;;;;;;0.00;0.00;;;;;23.90;57.49;99141.66;4948163;28;102192;-56
2022/08/08 08:29:39;;;;;;;;;0.00;0.00;;;;;23.90;57.33;99148.03;4965771;28;105607;-56
2022/08/08 08:32:08;;;;;;;;;0.00;0.00;;;;;23.90;57.68;99142.50;4958076;28;102230;-56
2022/08/08 08:34:37;;;;;;;;;0.00;0.00;;;;;23.91;57.74;99135.84;4957501;28;103023;-57
2022/08/08 08:37:09;;;;;;;;;0.00;0.00;;;;;23.91;57.68;99135.03;4944480;28;102171;-56
2022/08/08 08:39:36;;;;;;;;;0.00;0.00;;;;;23.91;57.12;99138.59;4959544;28;104049;-57
2022/08/08 08:42:24;;;;;;;;;0.00;0.00;;;;;23.93;57.46;99144.72;4945328;28;102146;-56
2022/08/08 08:45:05;;;;;;;;;0.00;0.00;;;;;23.94;57.43;99138.09;4941545;27;102418;-56
2022/08/08 08:47:52;;;;;;;;;0.00;0.00;;;;;23.94;57.29;99151.91;4952505;28;103272;-56
2022/08/08 08:50:22;;;;;;;;;0.00;0.00;;;;;23.95;57.42;99142.50;4948756;28;109029;-56
2022/08/08 08:53:04;;;;;;;;;0.00;0.00;;;;;23.96;57.00;99151.59;4949885;28;102453;-56
2022/08/08 08:55:52;;;;;;;;;0.00;0.00;;;;;23.97;57.29;99139.44;4945525;28;102132;-57
2022/08/08 08:58:34;;;;;;;;;0.00;0.00;;;;;23.98;57.18;99147.47;4956908;28;105419;-57
2022/08/08 09:01:04;;;;;;;;;0.00;0.00;;;;;23.98;57.16;99143.88;4937958;28;109505;-57
2022/08/08 09:03:39;;;;;;;;;0.67;0.00;;;;;23.99;57.21;99148.31;4951402;28;102324;-56
2022/08/08 09:06:31;;;;;;;;;0.00;0.00;;;;;24.00;56.92;99153.53;4953358;28;102316;-57
2022/08/08 09:09:27;;;;;;;;;0.00;0.00;;;;;24.00;56.92;99149.97;4942560;28;102470;-57
2022/08/08 09:12:06;;;;;;;;;0.00;0.00;;;;;24.00;56.96;99145.25;4954079;28;108859;-56
2022/08/08 09:14:35;;;;;;;;;0.00;0.00;;;;;24.01;56.61;99146.91;4962197;28;102216;-56
2022/08/08 09:17:12;;;;;;;;;0.00;0.00;;;;;24.02;57.11;99137.53;4938421;28;102490;-56
2022/08/08 09:19:46;;;;;;;;;0.00;0.00;;;;;24.02;57.02;99143.06;4956847;28;102525;-57
2022/08/08 09:22:34;;;;;;;;;0.00;0.00;;;;;24.04;56.63;99139.19;4950717;28;110131;-56
2022/08/08 09:25:01;;;;;;;;;0.00;0.00;;;;;24.05;56.68;99143.59;4956138;28;102207;-56
2022/08/08 09:27:29;;;;;;;;;0.00;0.00;;;;;24.05;57.05;99141.66;4952775;27;102176;-56
2022/08/08 09:30:16;;;;;;;;;0.00;0.00;;;;;24.05;56.76;99149.94;4953950;28;102510;-56
2022/08/08 09:32:55;;;;;;;;;0.00;0.00;;;;;24.06;57.04;99151.63;4958236;28;108619;-56
2022/08/08 09:35:44;;;;;;;;;0.00;0.00;;;;;24.06;56.67;99150.78;4954918;28;102127;-57
2022/08/08 09:38:38;;;;;;;;;0.00;0.00;;;;;24.06;56.78;99154.38;4968245;28;102311;-56
2022/08/08 09:41:28;;;;;;;;;1.00;0.00;;;;;24.08;56.81;99143.06;4959357;28;102956;-56
2022/08/08 09:44:03;;;;;;;;;0.00;0.00;;;;;24.08;56.90;99154.13;4957352;28;109061;-56
2022/08/08 09:46:41;;;;;;;;;0.00;0.00;;;;;24.07;56.76;99153.28;4944159;28;102392;-56
2022/08/08 09:49:22;;;;;;;;;0.00;0.00;;;;;24.09;56.78;99148.28;4934331;28;102393;-56
2022/08/08 09:52:10;;;;;;;;;0.00;0.00;;;;;24.10;56.67;99149.13;4949880;28;102533;-57
2022/08/08 09:54:57;;;;;;;;;0.00;0.00;;;;;24.11;56.59;99150.78;4949506;28;109895;-57
2022/08/08 09:57:37;;;;;;;;;1.00;0.00;;;;;24.10;56.90;99138.91;4951432;28;102479;-57
2022/08/08 10:00:13;;;;;;;;;0.00;0.00;;;;;24.12;56.68;99152.47;4947450;28;102145;-57
2022/08/08 10:03:02;;;;;;;;;0.67;0.00;;;;;24.11;56.62;99145.25;4953097;28;102202;-56
2022/08/08 10:05:33;;;;;;;;;0.00;0.00;;;;;24.12;56.61;99144.16;4948091;28;104146;-57
2022/08/08 10:08:01;;;;;;;;;0.00;0.00;;;;;24.12;56.67;99142.25;4945346;28;109737;-56
2022/08/08 10:10:35;;;;;;;;;0.00;0.00;;;;;24.12;56.78;99142.25;4964727;28;103011;-57
2022/08/08 10:13:22;;;;;;;;;0.00;0.00;;;;;24.13;56.59;99137.53;4948753;28;102728;-57
2022/08/08 10:15:59;;;;;;;;;0.00;0.00;;;;;24.13;56.36;99143.91;4950729;28;109007;-57
2022/08/08 10:18:33;;;;;;;;;0.00;0.00;;;;;24.14;56.51;99142.78;4950004;27;102151;-56
2022/08/08 10:21:02;;;;;;;;;0.00;0.00;;;;;24.15;56.38;99138.06;4946617;28;102396;-56
2022/08/08 10:23:50;;;;;;;;;0.00;0.00;;;;;24.14;56.45;99139.19;4961512;28;102137;-56
2022/08/08 10:26:28;;;;;;;;;0.00;0.00;;;;;24.14;56.54;99134.47;4952829;28;108972;-56
2022/08/08 10:29:16;;;;;;;;;0.00;0.00;;;;;24.15;56.50;99127.03;4962844;28;102117;-56
2022/08/08 10:34:35;;;;;;;;;0.00;0.00;;;;;24.17;56.41;99133.16;4948995;28;102176;-56
2022/08/08 10:37:03;;;;;;;;;0.00;0.00;;;;;24.17;56.31;99133.16;4970196;28;104111;-56
2022/08/08 10:39:31;;;;;;;;;0.00;0.00;;;;;24.17;56.43;99133.97;4955278;28;102620;-56
2022/08/08 10:42:18;;;;;;;;;0.00;0.00;;;;;24.18;56.33;99130.09;4953974;28;102429;-56
2022/08/08 10:44:46;;;;;;;;;0.00;0.00;;;;;24.18;56.17;99134.81;4957563;28;102456;-56
2022/08/08 10:47:17;;;;;;;;;0.00;0.00;;;;;24.19;56.44;99133.69;4959714;28;110697;-56
2022/08/08 10:49:54;;;;;;;;;0.00;0.00;;;;;24.19;56.25;99130.91;4947616;28;102074;-57
2022/08/08 10:52:36;;;;;;;;;0.00;0.00;;;;;24.19;56.45;99130.91;4946283;28;102238;-57
2022/08/08 10:55:06;;;;;;;;;0.00;0.00;;;;;24.19;56.25;99130.91;4954992;28;102652;-56
2022/08/08 10:57:44;;;;;;;;;0.00;0.00;;;;;24.20;56.09;99129.81;4952312;28;104245;-56
2022/08/08 11:00:25;;;;;;;;;0.00;0.00;;;;;24.20;56.22;99121.53;4961035;28;102071;-56
2022/08/08 11:02:54;;;;;;;;;0.00;0.00;;;;;24.20;55.98;99125.13;4954030;28;102007;-56
2022/08/08 11:05:21;;;;;;;;;0.00;0.00;;;;;24.21;56.23;99117.66;4955596;28;105079;-56
2022/08/08 11:07:50;;;;;;;;;0.00;0.00;;;;;24.21;55.95;99125.97;4944356;28;104092;-57
2022/08/08 11:10:37;;;;;;;;;0.00;0.00;;;;;24.23;56.09;99126.50;4949724;28;103158;-56
2022/08/08 11:13:06;;;;;;;;;0.00;0.00;;;;;24.23;55.99;99137.56;4955559;28;102337;-57
2022/08/08 11:15:54;;;;;;;;;0.00;0.00;;;;;24.24;55.85;99131.75;4946411;28;102509;-57
2022/08/08 11:18:34;;;;;;;;;0.00;0.00;;;;;24.25;55.89;99124.28;4939552;28;104382;-56
2022/08/08 11:21:02;;;;;;;;;0.00;0.00;;;;;24.25;55.83;99124.28;4966085;28;103065;-57
2022/08/08 11:23:35;;;;;;;;;0.00;0.00;;;;;24.28;56.14;99129.25;4961774;28;102161;-56
2022/08/08 11:26:04;;;;;;;;;0.00;0.00;;;;;24.28;55.63;99123.72;4935198;28;103228;-56
2022/08/08 11:28:35;;;;;;;;;0.00;0.00;;;;;24.28;55.92;99121.81;4946143;28;104076;-56
2022/08/08 11:31:05;;;;;;;;;0.00;0.00;;;;;24.28;55.72;99109.91;4955587;28;102393;-56
2022/08/08 11:33:36;;;;;;;;;0.00;0.00;;;;;24.29;56.08;99117.94;4951460;28;102434;-56
2022/08/08 11:36:23;;;;;;;;;0.00;0.00;;;;;24.30;55.74;99118.78;4967470;28;103131;-56
2022/08/08 11:38:55;;;;;;;;;0.00;0.00;;;;;24.32;55.75;99113.78;4956314;28;104208;-56
2022/08/08 11:41:23;;;;;;;;;0.00;0.00;;;;;24.31;55.86;99112.16;4962757;28;104145;-56
2022/08/08 11:43:54;;;;;;;;;0.00;0.00;;;;;24.32;55.65;99111.00;4952364;28;102481;-56
2022/08/08 11:46:26;;;;;;;;;0.00;0.00;;;;;24.32;55.96;99102.72;4954886;28;102448;-56
2022/08/08 11:48:57;;;;;;;;;0.00;0.00;;;;;24.33;55.77;99112.69;4949842;28;104219;-57
2022/08/08 11:51:24;;;;;;;;;0.00;0.00;;;;;24.35;55.74;99118.78;4945947;28;102216;-56
2022/08/08 11:54:07;;;;;;;;;0.00;0.00;;;;;24.36;55.81;99109.38;4933356;28;103542;-56
2022/08/08 11:56:54;;;;;;;;;0.33;0.00;;;;;24.36;55.75;99106.63;4951195;28;102519;-57
2022/08/08 11:59:33;;;;;;;;;0.00;0.00;;;;;24.37;55.60;99094.44;4947341;28;104107;-57
2022/08/08 12:02:21;;;;;;;;;0.00;0.00;;;;;24.37;55.71;99106.31;4953046;28;102662;-56
2022/08/08 12:05:08;;;;;;;;;0.00;0.00;;;;;24.38;55.48;99107.16;4951074;28;102713;-56
2022/08/08 12:07:59;;;;;;;;;0.00;0.00;;;;;24.38;55.73;99107.97;4966390;28;102436;-57
2022/08/08 12:10:29;;;;;;;;;0.00;0.00;;;;;24.40;55.39;99104.94;4960665;28;108803;-56
2022/08/08 12:13:06;;;;;;;;;0.00;0.00;;;;;24.40;55.52;99088.34;4960399;28;102534;-56
2022/08/08 12:15:37;;;;;;;;;0.00;0.00;;;;;24.41;55.55;99081.69;4952102;28;102350;-56
2022/08/08 12:18:22;;;;;;;;;0.00;0.00;;;;;24.42;55.55;99105.47;4947929;27;102452;-56
2022/08/08 12:20:53;;;;;;;;;0.00;0.00;;;;;24.42;55.47;99102.72;4956622;28;110337;-56
2022/08/08 12:23:33;;;;;;;;;0.00;0.00;;;;;24.43;55.30;99107.16;4949093;28;102857;-57
2022/08/08 12:26:22;;;;;;;;;0.00;0.00;;;;;24.43;55.36;99112.66;4955099;28;102685;-56
2022/08/08 12:29:16;;;;;;;;;0.00;0.00;;;;;24.44;55.45;99106.88;4948956;28;102214;-56
2022/08/08 12:31:45;;;;;;;;;0.00;0.00;;;;;24.44;55.53;99106.88;4950140;28;104124;-56
2022/08/08 12:34:35;;;;;;;;;0.00;0.00;;;;;24.44;55.59;99106.88;4953359;28;102017;-56
2022/08/08 12:37:29;;;;;;;;;0.00;0.00;;;;;24.44;55.47;99106.88;4945979;28;102491;-56